Time;durP1;ratioP1;P1;durP2;ratioP2;P2;SDS_P1;SDS_P2;PMS_P1;PMS_P2;Temp;Humidity;BMP_temperature;BMP_pressure;BME280_temperature;BME280_humidity;BME280_pressure;Samples;Min_cycle;Max_cycle;Signal;HPM_P1;HPM_P2
2022/10/29 00:01:48;;;;;;;10.85;3.40;;;;;;;14.54;100.00;99567.34;4965908;28;20034;-64
2022/10/29 00:04:13;;;;;;;10.50;3.25;;;;;;;14.13;100.00;99525.06;4979034;28;20074;-64
2022/10/29 00:06:39;;;;;;;7.70;3.13;;;;;;;14.34;100.00;99576.28;4959532;28;20106;-64
2022/10/29 00:09:05;;;;;;;9.45;3.38;;;;;;;14.41;100.00;99574.75;4986340;28;20556;-64
2022/10/29 00:11:30;;;;;;;6.47;3.47;;;;;;;14.40;100.00;99576.53;4980964;28;20026;-63
2022/10/29 00:13:58;;;;;;;8.30;3.15;;;;;;;14.23;100.00;99538.88;4962804;28;20126;-64
2022/10/29 00:16:27;;;;;;;8.40;3.63;;;;;;;14.43;100.00;99573.63;4975145;28;20025;-63
2022/10/29 00:18:54;;;;;;;9.87;3.33;;;;;;;14.38;100.00;99578.50;4990472;28;20800;-65
2022/10/29 00:21:22;;;;;;;7.78;3.10;;;;;;;14.09;100.00;99543.78;4979534;28;20036;-63
2022/10/29 00:23:48;;;;;;;7.22;2.88;;;;;;;14.34;100.00;99568.44;4994358;28;20033;-63
2022/10/29 00:26:14;;;;;;;8.23;2.83;;;;;;;14.34;100.00;99561.41;4980856;28;20030;-64
2022/10/29 00:28:40;;;;;;;8.63;3.90;;;;;;;14.29;100.00;99563.66;4977086;28;20062;-64
2022/10/29 00:31:17;;;;;;;6.60;3.05;;;;;;;14.35;100.00;99557.84;4979791;28;20035;-64
2022/10/29 00:33:43;;;;;;;7.07;3.13;;;;;;;14.32;100.00;99531.16;4982177;28;20022;-62
2022/10/29 00:36:10;;;;;;;9.15;3.40;;;;;;;14.36;100.00;99546.38;4961114;28;20044;-62
2022/10/29 00:38:36;;;;;;;8.43;3.58;;;;;;;14.32;100.00;99544.22;4964222;28;20057;-65
2022/10/29 00:41:04;;;;;;;9.45;3.45;;;;;;;14.28;100.00;99558.56;4971406;28;20113;-68
2022/10/29 00:43:32;;;;;;;7.82;3.20;;;;;;;14.21;100.00;99553.09;4965005;28;20023;-64
2022/10/29 00:46:00;;;;;;;7.45;3.45;;;;;;;14.24;100.00;99560.66;4979390;28;20026;-63
2022/10/29 00:48:27;;;;;;;9.88;3.83;;;;;;;14.19;100.00;99548.00;4982199;28;20034;-65
2022/10/29 00:50:53;;;;;;;10.68;3.38;;;;;;;14.29;100.00;99554.97;4992749;28;20043;-64
2022/10/29 00:53:21;;;;;;;9.55;3.63;;;;;;;14.25;100.00;99551.00;4971663;28;20023;-65
2022/10/29 00:55:46;;;;;;;11.70;3.40;;;;;;;14.27;100.00;99562.16;4988128;28;20305;-64
2022/10/29 00:58:12;;;;;;;9.18;3.92;;;;;;;14.01;100.00;99529.63;4976749;28;20039;-65
2022/10/29 01:00:37;;;;;;;7.90;3.08;;;;;;;14.18;100.00;99546.38;4979380;28;20073;-65
2022/10/29 01:03:04;;;;;;;9.82;3.30;;;;;;;14.20;100.00;99543.56;4987888;28;20043;-65
2022/10/29 01:05:30;;;;;;;6.10;3.00;;;;;;;14.20;100.00;99547.03;4977913;28;20032;-66
2022/10/29 01:07:55;;;;;;;8.23;3.22;;;;;;;14.12;100.00;99540.88;4975149;28;20583;-62
2022/10/29 01:10:26;;;;;;;9.25;3.30;;;;;;;14.06;100.00;99534.44;4960120;28;20077;-62
2022/10/29 01:12:59;;;;;;;8.43;3.30;;;;;;;14.06;100.00;99536.25;4979131;28;20497;-63
2022/10/29 01:15:39;;;;;;;13.20;3.10;;;;;;;14.03;100.00;99542.56;4979105;28;20065;-63
2022/10/29 01:18:15;;;;;;;7.25;2.97;;;;;;;13.95;100.00;99527.59;4977368;28;20035;-63
2022/10/29 01:20:49;;;;;;;6.93;3.20;;;;;;;14.07;100.00;99538.69;4973350;28;20037;-62
2022/10/29 01:23:34;;;;;;;7.80;3.40;;;;;;;14.05;100.00;99540.63;4975060;28;20037;-62
2022/10/29 01:26:17;;;;;;;6.35;2.67;;;;;;;14.10;100.00;99541.03;4977094;28;20046;-62
2022/10/29 01:29:17;;;;;;;9.20;4.32;;;;;;;14.07;100.00;99532.63;4974540;28;20528;-62
2022/10/29 01:31:54;;;;;;;9.27;3.20;;;;;;;14.10;100.00;99522.72;4977745;28;20093;-62
2022/10/29 01:34:38;;;;;;;6.68;2.80;;;;;;;14.04;100.00;99534.56;4969302;28;20049;-62
2022/10/29 01:37:21;;;;;;;12.02;2.88;;;;;;;14.06;100.00;99516.13;4976370;28;20030;-63
2022/10/29 01:39:59;;;;;;;6.90;2.85;;;;;;;14.15;100.00;99511.84;4967504;28;20062;-63
2022/10/29 01:42:29;;;;;;;8.23;3.25;;;;;;;14.14;100.00;99500.53;4981605;28;20037;-63
2022/10/29 01:44:59;;;;;;;12.02;3.00;;;;;;;14.08;100.00;99495.88;4984107;28;20034;-63
2022/10/29 01:47:27;;;;;;;10.70;2.92;;;;;;;14.00;100.00;99487.94;4972216;28;20077;-64
2022/10/29 01:50:01;;;;;;;6.68;2.92;;;;;;;14.07;100.00;99489.00;4986310;28;20033;-63
2022/10/29 01:52:29;;;;;;;5.78;2.40;;;;;;;13.76;100.00;99452.72;4969707;28;20030;-65
2022/10/29 01:54:55;;;;;;;6.55;3.20;;;;;;;14.06;100.00;99497.84;4975929;28;20030;-63
2022/10/29 01:57:35;;;;;;;7.70;3.00;;;;;;;14.08;100.00;99498.50;4972865;28;20516;-63
2022/10/29 02:00:06;;;;;;;7.45;3.00;;;;;;;14.05;100.00;99490.94;4976683;28;20068;-63
2022/10/29 02:02:53;;;;;;;6.53;2.63;;;;;;;14.00;100.00;99493.16;4984185;28;20098;-63
2022/10/29 02:05:36;;;;;;;7.65;2.92;;;;;;;13.96;100.00;99486.59;4961220;28;20124;-62
2022/10/29 02:08:30;;;;;;;13.13;3.42;;;;;;;13.87;100.00;99498.72;4964559;28;20038;-62
2022/10/29 02:11:11;;;;;;;9.65;3.10;;;;;;;13.86;100.00;99491.88;4954680;28;20959;-64
2022/10/29 02:13:41;;;;;;;9.25;3.33;;;;;;;13.68;100.00;99459.63;4980153;28;20035;-62
2022/10/29 02:16:08;;;;;;;5.70;2.65;;;;;;;13.75;100.00;99476.38;4971525;28;20034;-62
2022/10/29 02:18:42;;;;;;;7.50;3.00;;;;;;;13.83;100.00;99497.38;4976518;28;20026;-62
2022/10/29 02:21:07;;;;;;;6.57;3.10;;;;;;;13.98;100.00;99493.34;4960788;28;20034;-62
2022/10/29 02:23:32;;;;;;;9.13;2.67;;;;;;;13.89;100.00;99494.19;4959701;28;20405;-62
2022/10/29 02:25:58;;;;;;;10.82;4.22;;;;;;;13.81;100.00;99478.41;4973551;28;20026;-64
2022/10/29 02:28:23;;;;;;;8.48;2.78;;;;;;;13.83;100.00;99482.50;4957940;28;20383;-62
2022/10/29 02:30:49;;;;;;;9.07;2.95;;;;;;;13.93;100.00;99477.25;4976500;28;20050;-63
2022/10/29 02:33:15;;;;;;;7.07;3.15;;;;;;;13.92;100.00;99472.97;4972991;28;21229;-63
2022/10/29 02:35:40;;;;;;;8.90;3.00;;;;;;;13.92;100.00;99480.81;4975880;28;20045;-64
2022/10/29 02:38:05;;;;;;;7.88;2.60;;;;;;;13.83;100.00;99461.59;4974432;28;20030;-62
2022/10/29 02:40:31;;;;;;;10.32;2.92;;;;;;;13.94;100.00;99472.84;4957197;28;20121;-62
2022/10/29 02:42:56;;;;;;;8.73;2.40;;;;;;;13.89;100.00;99455.00;4967879;28;20026;-63
2022/10/29 02:45:22;;;;;;;6.15;2.30;;;;;;;13.88;100.00;99462.97;4961297;28;20141;-62
2022/10/29 02:47:47;;;;;;;7.32;2.55;;;;;;;13.86;100.00;99463.13;4969871;28;20117;-62
2022/10/29 02:50:14;;;;;;;8.55;2.80;;;;;;;13.92;100.00;99465.13;4979273;28;20373;-63
2022/10/29 02:52:39;;;;;;;6.55;2.38;;;;;;;13.94;100.00;99465.81;4974172;28;20088;-63
2022/10/29 02:55:05;;;;;;;5.15;2.58;;;;;;;13.88;100.00;99458.56;4970528;28;20041;-63
2022/10/29 02:57:30;;;;;;;6.88;2.33;;;;;;;13.85;100.00;99458.84;4956847;28;20650;-63
2022/10/29 02:59:56;;;;;;;8.77;3.00;;;;;;;13.83;100.00;99458.16;4971736;28;20375;-62
2022/10/29 03:02:22;;;;;;;10.70;2.85;;;;;;;13.57;100.00;99421.44;4961343;28;20074;-62
2022/10/29 03:04:47;;;;;;;8.18;2.45;;;;;;;13.77;100.00;99459.56;4972449;28;20039;-62
2022/10/29 03:07:13;;;;;;;6.30;2.58;;;;;;;13.76;100.00;99460.56;4977798;28;20034;-63
2022/10/29 03:09:38;;;;;;;8.07;2.67;;;;;;;13.78;100.00;99457.78;4973521;28;20425;-61
2022/10/29 03:12:04;;;;;;;8.30;3.10;;;;;;;13.85;100.00;99456.22;4973528;28;20130;-64
2022/10/29 03:14:29;;;;;;;7.47;2.53;;;;;;;13.69;100.00;99422.91;4958992;28;20633;-61
2022/10/29 03:16:54;;;;;;;6.70;3.10;;;;;;;13.88;100.00;99450.72;4970519;28;20106;-65
2022/10/29 03:19:20;;;;;;;7.50;2.47;;;;;;;13.83;100.00;99458.97;4973860;28;20034;-64
2022/10/29 03:21:45;;;;;;;8.38;2.58;;;;;;;13.75;100.00;99452.84;4978292;28;20022;-64
2022/10/29 03:24:11;;;;;;;8.82;2.60;;;;;;;13.78;100.00;99455.16;4970020;28;20663;-64
2022/10/29 03:26:36;;;;;;;5.10;2.25;;;;;;;13.72;100.00;99448.72;4977685;28;20053;-64
2022/10/29 03:29:01;;;;;;;10.50;2.58;;;;;;;13.73;100.00;99450.38;4964092;28;20039;-64
2022/10/29 03:31:27;;;;;;;7.28;2.75;;;;;;;13.48;100.00;99425.72;4985180;28;20030;-65
2022/10/29 03:33:52;;;;;;;7.70;2.63;;;;;;;13.65;100.00;99458.94;4968868;28;20058;-63
2022/10/29 03:36:18;;;;;;;6.43;2.70;;;;;;;13.62;100.00;99450.56;4980531;28;20616;-64
2022/10/29 03:38:43;;;;;;;7.85;2.70;;;;;;;13.64;100.00;99461.69;4978945;28;20090;-62
2022/10/29 03:41:09;;;;;;;7.72;2.67;;;;;;;13.67;100.00;99457.97;4958944;28;20034;-62
2022/10/29 03:43:38;;;;;;;7.93;3.05;;;;;;;13.74;100.00;99457.22;4977915;28;20026;-61
2022/10/29 03:46:04;;;;;;;7.13;2.50;;;;;;;13.75;100.00;99464.13;4976936;28;20039;-62
2022/10/29 03:48:29;;;;;;;8.20;2.58;;;;;;;13.79;100.00;99462.84;4986016;28;20270;-63
2022/10/29 03:50:56;;;;;;;10.55;2.67;;;;;;;13.73;100.00;99462.63;4981841;28;20604;-63
2022/10/29 03:53:23;;;;;;;5.63;2.30;;;;;;;13.70;100.00;99449.84;4977829;28;20057;-62
2022/10/29 03:55:50;;;;;;;5.82;2.42;;;;;;;13.71;100.00;99447.09;4988493;28;20685;-64
2022/10/29 03:58:16;;;;;;;7.03;2.88;;;;;;;13.77;100.00;99456.13;4979437;28;20030;-64
2022/10/29 04:00:41;;;;;;;6.18;2.53;;;;;;;13.73;100.00;99449.56;4975785;28;20026;-62
2022/10/29 04:03:06;;;;;;;8.30;3.08;;;;;;;13.78;100.00;99457.78;4981730;28;20058;-63
2022/10/29 04:05:32;;;;;;;12.02;2.70;;;;;;;13.72;100.00;99453.13;4974625;28;20046;-63
2022/10/29 04:07:57;;;;;;;6.78;2.35;;;;;;;13.71;100.00;99461.91;4978544;28;20035;-62
2022/10/29 04:10:24;;;;;;;7.57;2.33;;;;;;;13.64;100.00;99464.31;4975894;28;20042;-62
2022/10/29 04:12:50;;;;;;;9.63;2.50;;;;;;;13.75;100.00;99471.97;4976536;28;20121;-62
2022/10/29 04:15:15;;;;;;;9.05;2.55;;;;;;;13.69;100.00;99466.47;4972601;28;20551;-63
2022/10/29 04:17:40;;;;;;;7.90;2.47;;;;;;;13.76;100.00;99472.78;4983212;28;20027;-63
2022/10/29 04:20:06;;;;;;;6.88;2.30;;;;;;;13.76;100.00;99481.47;4977789;28;20042;-63
2022/10/29 04:22:32;;;;;;;6.15;2.35;;;;;;;13.69;100.00;99474.31;4978501;28;20039;-62
2022/10/29 04:24:57;;;;;;;5.40;2.00;;;;;;;13.55;100.00;99465.16;4971632;28;20031;-62
2022/10/29 04:27:23;;;;;;;6.63;2.70;;;;;;;13.51;100.00;99474.22;4973345;28;20031;-63
2022/10/29 04:29:48;;;;;;;8.65;2.75;;;;;;;13.33;100.00;99424.53;4970431;28;20478;-62
2022/10/29 04:32:13;;;;;;;5.25;2.15;;;;;;;13.61;100.00;99470.63;4962259;28;20125;-63
2022/10/29 04:34:39;;;;;;;10.13;2.67;;;;;;;13.62;100.00;99464.44;4973187;28;20444;-64
2022/10/29 04:37:04;;;;;;;6.60;2.20;;;;;;;13.61;100.00;99456.75;4976133;28;20665;-61
2022/10/29 04:39:29;;;;;;;6.68;2.10;;;;;;;13.68;100.00;99457.81;4975528;28;20048;-62
2022/10/29 04:41:55;;;;;;;7.32;2.58;;;;;;;13.68;100.00;99442.13;4980713;28;20092;-64
2022/10/29 04:44:20;;;;;;;6.55;2.20;;;;;;;13.72;100.00;99448.72;4970004;28;20034;-63
2022/10/29 04:46:46;;;;;;;6.25;2.13;;;;;;;13.76;100.00;99460.56;4976314;28;20037;-63
2022/10/29 04:49:11;;;;;;;6.70;2.33;;;;;;;13.74;100.00;99443.34;4956828;28;20039;-65
2022/10/29 04:51:37;;;;;;;5.22;2.50;;;;;;;13.78;100.00;99455.16;4971188;28;20042;-62
2022/10/29 04:54:02;;;;;;;7.35;2.00;;;;;;;13.74;100.00;99459.84;4992101;28;20053;-64
2022/10/29 04:56:29;;;;;;;10.07;2.45;;;;;;;13.70;100.00;99457.69;4962004;28;20100;-64
2022/10/29 04:58:54;;;;;;;7.80;2.20;;;;;;;13.47;100.00;99408.41;4959969;28;20129;-63
2022/10/29 05:01:20;;;;;;;6.82;2.30;;;;;;;13.68;100.00;99457.81;4969373;28;20845;-62
2022/10/29 05:03:45;;;;;;;8.98;2.28;;;;;;;13.55;100.00;99455.53;4973584;28;20085;-63
2022/10/29 05:06:10;;;;;;;6.90;2.20;;;;;;;13.56;100.00;99461.56;4965972;28;20041;-64
2022/10/29 05:08:36;;;;;;;7.00;2.30;;;;;;;13.60;100.00;99457.72;4978335;28;20097;-64
2022/10/29 05:11:03;;;;;;;6.13;2.20;;;;;;;13.61;100.00;99460.16;4976613;28;20754;-62
2022/10/29 05:13:29;;;;;;;7.00;2.22;;;;;;;13.53;100.00;99452.25;4971141;28;20624;-64
2022/10/29 05:15:54;;;;;;;6.70;2.38;;;;;;;13.48;100.00;99444.00;4977954;28;20034;-62
2022/10/29 05:18:20;;;;;;;7.88;2.60;;;;;;;13.56;100.00;99451.97;4973101;28;20467;-62
2022/10/29 05:20:45;;;;;;;6.55;2.13;;;;;;;13.56;100.00;99456.34;4976443;28;20022;-61
2022/10/29 05:23:11;;;;;;;5.95;2.53;;;;;;;13.52;100.00;99452.38;4974926;28;20062;-62
2022/10/29 05:25:38;;;;;;;8.20;2.50;;;;;;;13.41;100.00;99446.34;4979636;28;20619;-63
2022/10/29 05:28:22;;;;;;;8.60;2.30;;;;;;;13.50;100.00;99455.13;4974372;28;20054;-63
2022/10/29 05:30:49;;;;;;;5.55;2.40;;;;;;;13.53;100.00;99454.84;4988026;28;20101;-63
2022/10/29 05:33:17;;;;;;;5.75;2.03;;;;;;;13.49;100.00;99450.91;4986284;28;20325;-62
2022/10/29 05:35:43;;;;;;;5.25;2.40;;;;;;;13.48;100.00;99458.88;4980281;28;20049;-62
2022/10/29 05:38:10;;;;;;;7.78;2.80;;;;;;;13.56;100.00;99458.97;4975117;28;20038;-62
2022/10/29 05:40:35;;;;;;;6.45;2.40;;;;;;;13.57;100.00;99455.41;4980657;28;20030;-62
2022/10/29 05:43:01;;;;;;;9.23;2.70;;;;;;;13.59;100.00;99464.72;4969653;28;20030;-62
2022/10/29 05:45:26;;;;;;;7.75;2.28;;;;;;;13.54;100.00;99459.09;4975054;28;20389;-62
2022/10/29 05:47:56;;;;;;;8.38;2.53;;;;;;;13.50;100.00;99465.59;4984948;28;20034;-62
2022/10/29 05:50:22;;;;;;;7.93;2.22;;;;;;;13.59;100.00;99462.13;4968619;28;20038;-62
2022/10/29 05:52:58;;;;;;;6.53;2.40;;;;;;;13.55;100.00;99468.59;4969028;28;20466;-62
2022/10/29 05:55:24;;;;;;;9.00;2.30;;;;;;;13.50;100.00;99462.16;4976370;28;20058;-63
2022/10/29 05:57:49;;;;;;;6.82;2.45;;;;;;;13.56;100.00;99462.41;5004879;28;20046;-62
2022/10/29 06:00:15;;;;;;;6.53;2.45;;;;;;;13.62;100.00;99474.91;4987077;28;20026;-62
2022/10/29 06:02:44;;;;;;;7.22;2.22;;;;;;;13.57;100.00;99471.06;4980741;28;20027;-62
2022/10/29 06:05:09;;;;;;;8.50;2.38;;;;;;;13.57;100.00;99478.91;4952334;28;20038;-62
2022/10/29 06:07:35;;;;;;;8.27;2.58;;;;;;;13.65;100.00;99479.00;4951188;28;20034;-62
2022/10/29 06:10:00;;;;;;;6.47;2.17;;;;;;;13.50;100.00;99473.41;4948532;28;20143;-62
2022/10/29 06:12:30;;;;;;;6.80;1.77;;;;;;;13.50;100.00;99480.44;4970892;28;20058;-62
2022/10/29 06:14:56;;;;;;;6.68;2.30;;;;;;;13.52;100.00;99486.34;4968248;28;20512;-62
2022/10/29 06:17:21;;;;;;;7.20;2.30;;;;;;;13.56;100.00;99479.88;4952457;28;20045;-62
2022/10/29 06:19:47;;;;;;;7.00;2.50;;;;;;;13.57;100.00;99486.75;4978446;28;20033;-61
2022/10/29 06:22:12;;;;;;;5.95;2.40;;;;;;;13.52;100.00;99481.13;4960591;28;20693;-64
2022/10/29 06:24:37;;;;;;;6.97;3.13;;;;;;;13.53;100.00;99475.75;4970779;28;20500;-62
2022/10/29 06:27:03;;;;;;;9.55;2.25;;;;;;;13.58;100.00;99483.16;4973475;28;20038;-62
2022/10/29 06:29:28;;;;;;;5.85;2.10;;;;;;;13.34;100.00;99444.47;4972048;28;20034;-62
2022/10/29 06:31:54;;;;;;;6.45;2.08;;;;;;;13.51;100.00;99476.84;4974574;28;20035;-62
2022/10/29 06:34:19;;;;;;;5.30;2.20;;;;;;;13.44;100.00;99474.81;4969943;28;20477;-62
2022/10/29 06:36:45;;;;;;;5.07;2.42;;;;;;;13.49;100.00;99484.00;4977930;28;20100;-63
2022/10/29 06:39:10;;;;;;;9.05;2.33;;;;;;;13.51;100.00;99475.09;4955748;28;20062;-62
2022/10/29 06:41:35;;;;;;;7.75;2.25;;;;;;;13.56;100.00;99472.88;4971941;28;20128;-63
2022/10/29 06:44:01;;;;;;;7.43;2.40;;;;;;;13.60;100.00;99465.56;4976017;28;20038;-63
2022/10/29 06:46:26;;;;;;;6.00;2.20;;;;;;;13.62;100.00;99469.69;4977398;28;20058;-63
2022/10/29 06:48:52;;;;;;;5.90;2.47;;;;;;;13.46;100.00;99438.91;4959218;28;20042;-62
2022/10/29 06:51:18;;;;;;;6.60;2.30;;;;;;;13.68;100.00;99472.69;4988208;28;20038;-62
2022/10/29 06:53:43;;;;;;;7.40;2.30;;;;;;;13.69;100.00;99471.69;4991918;28;20037;-62
2022/10/29 06:56:09;;;;;;;7.90;2.50;;;;;;;13.63;100.00;99475.72;4972128;28;20041;-63
2022/10/29 06:58:34;;;;;;;6.97;2.30;;;;;;;13.58;100.00;99484.00;4959255;28;20117;-63
2022/10/29 07:01:00;;;;;;;5.43;2.08;;;;;;;13.36;100.00;99437.31;4977929;28;20829;-63
2022/10/29 07:03:25;;;;;;;8.10;3.25;;;;;;;13.63;100.00;99487.00;4966882;28;20446;-63
2022/10/29 07:05:58;;;;;;;7.60;2.60;;;;;;;13.58;100.00;99473.53;4960074;28;20080;-64
2022/10/29 07:08:24;;;;;;;7.30;2.75;;;;;;;13.61;100.00;99483.69;4970359;28;20038;-63
2022/10/29 07:10:51;;;;;;;8.98;2.30;;;;;;;13.68;100.00;99490.97;4976630;28;20113;-63
2022/10/29 07:13:16;;;;;;;7.03;2.30;;;;;;;13.65;100.00;99495.53;4978113;28;20053;-62
2022/10/29 07:15:41;;;;;;;13.57;4.15;;;;;;;13.51;100.00;99480.31;4977157;28;20604;-63
2022/10/29 07:18:08;;;;;;;6.75;2.17;;;;;;;13.64;100.00;99504.31;4977536;28;20692;-62
2022/10/29 07:20:40;;;;;;;9.30;2.72;;;;;;;13.63;100.00;99502.69;4986851;28;20629;-62
2022/10/29 07:23:07;;;;;;;7.45;2.60;;;;;;;13.48;100.00;99456.25;4976389;28;20023;-62
2022/10/29 07:25:33;;;;;;;7.80;2.30;;;;;;;13.41;100.00;99448.97;4963255;28;20089;-63
2022/10/29 07:28:15;;;;;;;7.80;2.60;;;;;;;13.63;100.00;99494.00;4960244;28;20049;-63
2022/10/29 07:30:41;;;;;;;6.63;2.33;;;;;;;13.74;100.00;99496.44;4975489;28;20085;-63
2022/10/29 07:33:07;;;;;;;9.85;2.65;;;;;;;13.59;100.00;99492.66;4972891;28;20085;-63
2022/10/29 07:35:33;;;;;;;6.55;2.28;;;;;;;13.41;100.00;99458.59;4960018;28;20049;-64
2022/10/29 07:38:00;;;;;;;8.73;2.70;;;;;;;13.63;100.00;99500.06;4976730;28;20939;-63
2022/10/29 07:40:26;;;;;;;8.07;2.40;;;;;;;13.61;100.00;99498.56;4975564;28;20037;-63
2022/10/29 07:42:52;;;;;;;10.77;2.42;;;;;;;13.42;100.00;99473.31;4961699;28;20042;-62
2022/10/29 07:45:18;;;;;;;7.60;2.10;;;;;;;13.62;100.00;99495.81;4973578;28;20525;-62
2022/10/29 07:47:43;;;;;;;11.77;2.42;;;;;;;13.63;100.00;99502.69;4976502;28;20160;-63
2022/10/29 07:50:10;;;;;;;4.53;2.08;;;;;;;13.37;100.00;99460.66;4973088;28;21324;-62
2022/10/29 07:52:36;;;;;;;9.73;2.30;;;;;;;13.60;100.00;99496.94;4970351;28;20046;-62
2022/10/29 07:55:02;;;;;;;5.72;2.50;;;;;;;13.63;100.00;99501.84;4969142;28;20386;-62
2022/10/29 07:57:28;;;;;;;6.65;3.10;;;;;;;13.62;100.00;99506.25;4951207;28;20050;-62
2022/10/29 07:59:53;;;;;;;6.68;2.90;;;;;;;13.67;100.00;99505.81;4978416;28;20034;-62
2022/10/29 08:02:19;;;;;;;9.60;3.50;;;;;;;13.60;100.00;99510.00;4957702;28;20031;-62
2022/10/29 08:04:44;;;;;;;8.55;2.72;;;;;;;13.58;100.00;99510.13;4974077;28;20105;-61
2022/10/29 08:07:10;;;;;;;7.85;3.30;;;;;;;13.65;100.00;99510.38;4956916;28;20046;-63
2022/10/29 08:09:35;;;;;;;14.48;3.80;;;;;;;13.73;100.00;99509.69;4972214;28;20057;-62
2022/10/29 08:12:03;;;;;;;6.50;3.03;;;;;;;13.65;100.00;99495.53;4971547;28;20046;-61
2022/10/29 08:14:29;;;;;;;6.93;2.80;;;;;;;13.63;100.00;99496.63;4965618;28;20035;-62
2022/10/29 08:16:55;;;;;;;6.40;3.00;;;;;;;13.81;100.00;99497.50;4977172;28;20118;-62
2022/10/29 08:19:21;;;;;;;8.77;3.70;;;;;;;13.83;100.00;99505.22;4951427;28;20030;-62
2022/10/29 08:21:46;;;;;;;13.63;5.25;;;;;;;13.88;100.00;99496.97;4975003;28;20053;-62
2022/10/29 08:24:12;;;;;;;17.05;6.13;;;;;;;13.92;100.00;99500.91;4971750;28;21028;-61
2022/10/29 08:26:37;;;;;;;13.68;5.07;;;;;;;13.86;100.00;99497.09;4987673;28;20436;-61
2022/10/29 08:29:04;;;;;;;8.30;3.00;;;;;;;13.93;100.00;99498.16;4973782;28;20688;-63
2022/10/29 08:31:30;;;;;;;11.90;4.90;;;;;;;13.96;100.00;99503.13;4972172;28;20114;-61
2022/10/29 08:33:55;;;;;;;9.02;2.78;;;;;;;14.04;100.00;99510.22;4972933;28;20027;-63
2022/10/29 08:36:21;;;;;;;9.63;3.28;;;;;;;14.06;100.00;99510.09;4973056;28;20069;-62
2022/10/29 08:38:46;;;;;;;8.27;2.70;;;;;;;14.13;100.00;99505.94;4969793;28;20113;-60
2022/10/29 08:41:40;;;;;;;8.13;2.45;;;;;;;13.95;100.00;99475.31;4976469;28;20137;-61
2022/10/29 08:44:13;;;;;;;6.18;2.38;;;;;;;14.09;100.00;99504.56;4973070;28;20034;-61
2022/10/29 08:47:17;;;;;;;8.70;3.15;;;;;;;14.11;100.00;99497.38;4971873;28;20097;-61
2022/10/29 08:50:00;;;;;;;9.45;2.40;;;;;;;14.11;100.00;99497.38;4989401;28;20047;-61
2022/10/29 08:52:32;;;;;;;7.65;3.22;;;;;;;14.04;100.00;99477.06;4976514;28;20035;-61
2022/10/29 08:55:05;;;;;;;9.07;3.10;;;;;;;14.25;100.00;99496.06;4958774;28;20065;-62
2022/10/29 08:57:35;;;;;;;10.98;5.03;;;;;;;14.24;100.00;99482.19;4976273;28;20026;-62
2022/10/29 09:00:14;;;;;;;11.52;3.83;;;;;;;14.21;100.00;99478.06;4978734;28;20142;-61
2022/10/29 09:02:40;;;;;;;9.93;3.23;;;;;;;14.33;100.00;99478.69;4975137;28;20042;-62
2022/10/29 09:05:12;;;;;;;9.38;2.70;;;;;;;14.31;100.00;99471.94;4970422;28;20027;-62
2022/10/29 09:07:56;;;;;;;9.85;2.95;;;;;;;14.35;100.00;99479.34;4977812;28;20026;-60
2022/10/29 09:10:51;;;;;;;8.70;2.10;;;;;;;14.17;99.38;99442.69;4978929;28;20564;-61
2022/10/29 09:13:28;;;;;;;12.02;3.20;;;;;;;14.45;100.00;99473.22;4968958;28;20073;-63
2022/10/29 09:16:23;;;;;;;8.30;2.80;;;;;;;14.43;100.00;99470.75;4972039;28;20039;-61
2022/10/29 09:19:05;;;;;;;8.52;3.40;;;;;;;14.45;100.00;99475.84;4973635;28;20030;-61
2022/10/29 09:21:50;;;;;;;7.75;2.70;;;;;;;14.43;100.00;99470.75;4963160;28;20022;-62
2022/10/29 09:24:23;;;;;;;8.82;2.90;;;;;;;14.22;100.00;99431.81;4984333;28;20080;-62
2022/10/29 09:26:59;;;;;;;8.07;3.20;;;;;;;14.25;100.00;99431.50;4980657;28;20578;-61
2022/10/29 09:29:53;;;;;;;7.70;3.05;;;;;;;14.58;100.00;99468.47;4968997;28;20034;-62
2022/10/29 09:32:41;;;;;;;8.63;3.00;;;;;;;14.54;100.00;99467.09;4987584;28;20038;-62
2022/10/29 09:35:15;;;;;;;8.15;2.75;;;;;;;14.54;100.00;99467.09;4980775;28;20058;-62
2022/10/29 09:37:48;;;;;;;9.40;2.33;;;;;;;14.71;100.00;99468.94;4958903;28;20034;-63
2022/10/29 09:40:35;;;;;;;7.30;2.78;;;;;;;14.74;98.63;99471.25;4972750;28;20106;-62
2022/10/29 09:43:06;;;;;;;7.85;2.50;;;;;;;14.86;96.57;99463.16;4975331;28;20038;-62
2022/10/29 09:45:43;;;;;;;8.95;2.30;;;;;;;15.00;96.01;99470.47;4973303;28;20413;-63
2022/10/29 09:48:43;;;;;;;6.60;1.80;;;;;;;15.07;94.38;99465.44;4973058;28;20081;-63
2022/10/29 09:51:21;;;;;;;6.35;1.80;;;;;;;15.16;92.06;99467.97;4970915;28;20125;-63
2022/10/29 09:53:49;;;;;;;6.43;1.77;;;;;;;15.21;92.99;99469.31;4969518;28;20030;-63
2022/10/29 09:56:14;;;;;;;5.07;1.75;;;;;;;15.26;93.33;99456.56;4953592;28;20040;-65
2022/10/29 09:58:43;;;;;;;6.38;1.90;;;;;;;15.35;89.69;99456.47;4973940;28;20915;-64
2022/10/29 10:01:09;;;;;;;8.13;2.20;;;;;;;15.33;91.37;99468.91;4951745;28;20764;-64
2022/10/29 10:03:44;;;;;;;9.75;2.40;;;;;;;15.35;88.92;99461.72;4964550;28;20282;-63
2022/10/29 10:06:11;;;;;;;6.65;2.20;;;;;;;15.41;89.02;99467.31;4969505;28;20283;-61
2022/10/29 10:09:14;;;;;;;5.95;2.13;;;;;;;15.50;90.35;99466.38;4970564;28;20030;-62
2022/10/29 10:11:41;;;;;;;6.15;1.90;;;;;;;15.63;86.08;99463.34;4971709;28;20800;-60
2022/10/29 10:14:19;;;;;;;5.82;1.85;;;;;;;15.65;87.32;99456.94;4964615;28;20052;-62
2022/10/29 10:16:45;;;;;;;5.05;1.67;;;;;;;15.65;87.96;99448.28;4950456;28;20520;-62
2022/10/29 10:19:27;;;;;;;5.70;1.40;;;;;;;15.70;85.58;99448.63;4970866;28;20977;-62
2022/10/29 10:21:58;;;;;;;5.80;1.70;;;;;;;15.74;84.72;99440.31;4960550;28;20031;-62
2022/10/29 10:24:35;;;;;;;4.15;1.65;;;;;;;15.70;85.30;99441.56;4973622;28;20062;-62
2022/10/29 10:27:23;;;;;;;5.20;1.77;;;;;;;15.80;82.96;99443.28;4966675;28;20225;-61
2022/10/29 10:30:04;;;;;;;5.85;1.80;;;;;;;15.86;80.76;99435.63;4948589;28;20729;-63
2022/10/29 10:32:30;;;;;;;7.47;1.85;;;;;;;16.04;81.39;99438.09;4973325;28;20038;-61
2022/10/29 10:34:56;;;;;;;6.18;2.45;;;;;;;16.05;80.78;99420.59;4957091;28;20572;-62
2022/10/29 10:37:21;;;;;;;5.45;1.88;;;;;;;15.92;80.50;99392.19;4956268;28;20037;-61
2022/10/29 10:39:54;;;;;;;7.55;1.85;;;;;;;16.15;81.74;99429.13;4970908;28;20047;-62
2022/10/29 10:42:29;;;;;;;5.00;1.50;;;;;;;16.33;77.71;99429.00;4986542;28;20065;-61
2022/10/29 10:45:01;;;;;;;7.18;2.03;;;;;;;16.33;78.10;99424.56;4972704;28;20038;-61
2022/10/29 10:47:29;;;;;;;7.28;1.95;;;;;;;16.28;78.28;99410.28;4955706;28;20076;-61
2022/10/29 10:50:10;;;;;;;6.78;2.00;;;;;;;16.28;77.91;99410.28;4979723;28;20038;-62
2022/10/29 10:52:36;;;;;;;6.30;1.92;;;;;;;16.40;78.60;99413.44;4983974;28;20035;-62
2022/10/29 10:55:09;;;;;;;6.97;2.13;;;;;;;16.46;78.18;99407.50;4971916;28;20038;-62
2022/10/29 10:57:45;;;;;;;5.70;1.85;;;;;;;16.53;77.94;99405.88;4975957;28;20072;-61
2022/10/29 11:00:19;;;;;;;5.95;1.77;;;;;;;16.52;79.27;99391.94;4970235;28;20061;-62
2022/10/29 11:03:02;;;;;;;6.28;1.70;;;;;;;16.50;80.69;99388.66;5003279;28;20266;-61
2022/10/29 11:05:31;;;;;;;7.97;1.58;;;;;;;16.81;82.33;99381.91;4964509;28;20034;-61
2022/10/29 11:08:14;;;;;;;10.30;2.10;;;;;;;16.87;82.31;99384.72;4978507;28;20030;-62
2022/10/29 11:10:43;;;;;;;6.95;1.80;;;;;;;17.03;83.74;99383.88;4959560;28;20038;-61
2022/10/29 11:13:11;;;;;;;;;;;;;;;17.17;82.15;99373.66;4953257;28;20815;-62
2022/10/29 11:15:40;;;;;;;8.15;1.85;;;;;;;17.25;80.35;99368.41;4973813;28;19924;-61
2022/10/29 11:18:19;;;;;;;9.13;2.00;;;;;;;17.37;81.57;99371.47;4957712;28;20112;-62
2022/10/29 11:20:50;;;;;;;7.77;1.90;;;;;;;17.44;79.48;99359.28;4955840;28;20791;-62
2022/10/29 11:23:26;;;;;;;9.52;2.08;;;;;;;17.39;81.34;99361.59;4976849;28;20033;-62
2022/10/29 11:26:21;;;;;;;9.60;2.60;;;;;;;17.33;81.24;99357.84;4969199;28;20065;-62
2022/10/29 11:28:54;;;;;;;6.85;1.80;;;;;;;17.42;82.73;99351.56;4983629;28;20053;-61
2022/10/29 11:31:30;;;;;;;8.45;1.75;;;;;;;17.68;82.56;99353.09;4978255;28;20056;-60
2022/10/29 11:34:03;;;;;;;4.80;1.63;;;;;;;17.76;81.87;99350.44;4974604;28;20035;-60
2022/10/29 11:36:33;;;;;;;7.43;2.17;;;;;;;17.79;83.21;99344.00;4976424;28;20616;-59
2022/10/29 11:39:09;;;;;;;5.93;2.30;;;;;;;17.75;83.64;99335.63;4978114;28;20038;-59